sensor_id;sensor_type;location;lat;lon;timestamp;P1;durP1;ratioP1;P2;durP2;ratioP2
74995;SDS011;63545;51.690;5.202;2023-07-20T00:01:03;17.67;;;8.87;;
74995;SDS011;63545;51.690;5.202;2023-07-20T00:03:29;17.43;;;8.37;;
74995;SDS011;63545;51.690;5.202;2023-07-20T00:05:54;24.13;;;9.03;;
74995;SDS011;63545;51.690;5.202;2023-07-20T00:08:20;19.05;;;8.85;;
74995;SDS011;63545;51.690;5.202;2023-07-20T00:10:45;22.00;;;10.17;;
74995;SDS011;63545;51.690;5.202;2023-07-20T00:13:11;25.27;;;11.47;;
74995;SDS011;63545;51.690;5.202;2023-07-20T00:15:37;25.83;;;12.68;;
74995;SDS011;63545;51.690;5.202;2023-07-20T00:18:03;24.50;;;13.07;;
74995;SDS011;63545;51.690;5.202;2023-07-20T00:20:31;22.43;;;13.13;;
74995;SDS011;63545;51.690;5.202;2023-07-20T00:22:56;22.85;;;13.10;;
74995;SDS011;63545;51.690;5.202;2023-07-20T00:25:22;24.00;;;13.73;;
74995;SDS011;63545;51.690;5.202;2023-07-20T00:27:51;24.90;;;14.25;;
74995;SDS011;63545;51.690;5.202;2023-07-20T00:30:16;24.17;;;13.70;;
74995;SDS011;63545;51.690;5.202;2023-07-20T00:32:42;23.52;;;14.45;;
74995;SDS011;63545;51.690;5.202;2023-07-20T00:35:08;24.53;;;15.00;;
74995;SDS011;63545;51.690;5.202;2023-07-20T00:37:33;23.58;;;14.73;;
74995;SDS011;63545;51.690;5.202;2023-07-20T00:39:59;28.03;;;15.57;;
74995;SDS011;63545;51.690;5.202;2023-07-20T00:42:24;26.27;;;15.47;;
74995;SDS011;63545;51.690;5.202;2023-07-20T00:44:49;30.27;;;17.03;;
74995;SDS011;63545;51.690;5.202;2023-07-20T00:47:15;32.10;;;17.63;;
74995;SDS011;63545;51.690;5.202;2023-07-20T00:49:40;31.30;;;17.97;;
74995;SDS011;63545;51.690;5.202;2023-07-20T00:52:06;31.97;;;18.20;;
74995;SDS011;63545;51.690;5.202;2023-07-20T00:54:32;35.13;;;18.05;;
74995;SDS011;63545;51.690;5.202;2023-07-20T00:56:58;34.10;;;17.97;;
74995;SDS011;63545;51.690;5.202;2023-07-20T00:59:23;34.42;;;18.45;;
74995;SDS011;63545;51.690;5.202;2023-07-20T01:01:49;34.53;;;18.03;;
74995;SDS011;63545;51.690;5.202;2023-07-20T01:04:14;35.53;;;18.97;;
74995;SDS011;63545;51.690;5.202;2023-07-20T01:06:50;28.17;;;17.88;;
74995;SDS011;63545;51.690;5.202;2023-07-20T01:09:34;29.67;;;17.40;;
74995;SDS011;63545;51.690;5.202;2023-07-20T01:12:26;32.40;;;17.73;;
74995;SDS011;63545;51.690;5.202;2023-07-20T01:14:52;34.30;;;18.88;;
74995;SDS011;63545;51.690;5.202;2023-07-20T01:17:18;34.35;;;19.52;;
74995;SDS011;63545;51.690;5.202;2023-07-20T01:19:44;34.97;;;20.03;;
74995;SDS011;63545;51.690;5.202;2023-07-20T01:22:15;35.03;;;20.50;;
74995;SDS011;63545;51.690;5.202;2023-07-20T01:24:53;34.75;;;19.88;;
74995;SDS011;63545;51.690;5.202;2023-07-20T01:27:28;42.30;;;21.33;;
74995;SDS011;63545;51.690;5.202;2023-07-20T01:30:10;41.70;;;21.53;;
74995;SDS011;63545;51.690;5.202;2023-07-20T01:32:42;41.13;;;20.92;;
74995;SDS011;63545;51.690;5.202;2023-07-20T01:35:07;39.42;;;21.30;;
74995;SDS011;63545;51.690;5.202;2023-07-20T01:37:34;39.75;;;22.10;;
74995;SDS011;63545;51.690;5.202;2023-07-20T01:40:01;42.42;;;21.90;;
74995;SDS011;63545;51.690;5.202;2023-07-20T01:42:26;35.37;;;21.13;;
74995;SDS011;63545;51.690;5.202;2023-07-20T01:44:51;35.47;;;21.37;;
74995;SDS011;63545;51.690;5.202;2023-07-20T01:47:19;42.15;;;20.23;;
74995;SDS011;63545;51.690;5.202;2023-07-20T01:49:45;35.73;;;20.07;;
74995;SDS011;63545;51.690;5.202;2023-07-20T01:52:11;36.05;;;20.08;;
74995;SDS011;63545;51.690;5.202;2023-07-20T01:54:36;40.60;;;20.90;;
74995;SDS011;63545;51.690;5.202;2023-07-20T01:57:02;38.23;;;21.87;;
74995;SDS011;63545;51.690;5.202;2023-07-20T01:59:27;38.65;;;22.15;;
74995;SDS011;63545;51.690;5.202;2023-07-20T02:01:53;39.33;;;22.73;;
74995;SDS011;63545;51.690;5.202;2023-07-20T02:04:19;43.42;;;22.80;;
74995;SDS011;63545;51.690;5.202;2023-07-20T02:06:44;43.30;;;22.43;;
74995;SDS011;63545;51.690;5.202;2023-07-20T02:09:09;37.07;;;21.80;;
74995;SDS011;63545;51.690;5.202;2023-07-20T02:11:35;36.47;;;20.50;;
74995;SDS011;63545;51.690;5.202;2023-07-20T02:14:00;33.57;;;20.00;;
74995;SDS011;63545;51.690;5.202;2023-07-20T02:16:25;38.95;;;20.67;;
74995;SDS011;63545;51.690;5.202;2023-07-20T02:18:52;35.53;;;20.00;;
74995;SDS011;63545;51.690;5.202;2023-07-20T02:21:17;40.50;;;20.60;;
74995;SDS011;63545;51.690;5.202;2023-07-20T02:23:43;31.87;;;18.10;;
74995;SDS011;63545;51.690;5.202;2023-07-20T02:26:08;36.27;;;19.97;;
74995;SDS011;63545;51.690;5.202;2023-07-20T02:28:33;33.00;;;19.37;;
74995;SDS011;63545;51.690;5.202;2023-07-20T02:30:59;32.83;;;18.73;;
74995;SDS011;63545;51.690;5.202;2023-07-20T02:33:25;34.05;;;18.55;;
74995;SDS011;63545;51.690;5.202;2023-07-20T02:35:51;32.88;;;18.20;;
74995;SDS011;63545;51.690;5.202;2023-07-20T02:38:16;32.63;;;18.73;;
74995;SDS011;63545;51.690;5.202;2023-07-20T02:40:42;31.77;;;17.97;;
74995;SDS011;63545;51.690;5.202;2023-07-20T02:43:07;29.93;;;16.90;;
74995;SDS011;63545;51.690;5.202;2023-07-20T02:45:34;29.17;;;16.48;;
74995;SDS011;63545;51.690;5.202;2023-07-20T02:48:02;26.45;;;16.38;;
74995;SDS011;63545;51.690;5.202;2023-07-20T02:50:28;26.80;;;15.50;;
74995;SDS011;63545;51.690;5.202;2023-07-20T02:52:53;25.93;;;15.17;;
74995;SDS011;63545;51.690;5.202;2023-07-20T02:55:19;23.33;;;14.57;;
74995;SDS011;63545;51.690;5.202;2023-07-20T02:57:44;24.40;;;15.40;;
74995;SDS011;63545;51.690;5.202;2023-07-20T03:00:09;23.97;;;14.63;;
74995;SDS011;63545;51.690;5.202;2023-07-20T03:02:36;28.38;;;16.20;;
74995;SDS011;63545;51.690;5.202;2023-07-20T03:05:01;28.80;;;14.97;;
74995;SDS011;63545;51.690;5.202;2023-07-20T03:07:30;24.02;;;15.30;;
74995;SDS011;63545;51.690;5.202;2023-07-20T03:09:56;27.87;;;17.63;;
74995;SDS011;63545;51.690;5.202;2023-07-20T03:12:21;34.37;;;18.93;;
74995;SDS011;63545;51.690;5.202;2023-07-20T03:14:47;35.07;;;20.87;;
74995;SDS011;63545;51.690;5.202;2023-07-20T03:17:12;39.07;;;20.70;;
74995;SDS011;63545;51.690;5.202;2023-07-20T03:19:37;41.15;;;21.35;;
74995;SDS011;63545;51.690;5.202;2023-07-20T03:22:03;35.50;;;20.70;;
74995;SDS011;63545;51.690;5.202;2023-07-20T03:24:28;34.53;;;20.27;;
74995;SDS011;63545;51.690;5.202;2023-07-20T03:26:54;34.27;;;20.20;;
74995;SDS011;63545;51.690;5.202;2023-07-20T03:29:19;33.93;;;19.43;;
74995;SDS011;63545;51.690;5.202;2023-07-20T03:31:44;33.47;;;18.33;;
74995;SDS011;63545;51.690;5.202;2023-07-20T03:34:10;33.23;;;18.93;;
74995;SDS011;63545;51.690;5.202;2023-07-20T03:36:35;32.70;;;19.20;;
74995;SDS011;63545;51.690;5.202;2023-07-20T03:39:00;30.87;;;18.33;;
74995;SDS011;63545;51.690;5.202;2023-07-20T03:41:26;31.53;;;17.60;;
74995;SDS011;63545;51.690;5.202;2023-07-20T03:43:51;30.30;;;17.63;;
74995;SDS011;63545;51.690;5.202;2023-07-20T03:46:16;30.73;;;17.90;;
74995;SDS011;63545;51.690;5.202;2023-07-20T03:48:42;32.63;;;18.03;;
74995;SDS011;63545;51.690;5.202;2023-07-20T03:51:07;34.30;;;18.67;;
74995;SDS011;63545;51.690;5.202;2023-07-20T03:53:33;34.30;;;20.33;;
74995;SDS011;63545;51.690;5.202;2023-07-20T03:55:58;35.50;;;19.83;;
74995;SDS011;63545;51.690;5.202;2023-07-20T03:58:23;34.10;;;20.85;;
74995;SDS011;63545;51.690;5.202;2023-07-20T04:00:50;38.33;;;20.33;;
74995;SDS011;63545;51.690;5.202;2023-07-20T04:03:16;42.47;;;20.80;;
74995;SDS011;63545;51.690;5.202;2023-07-20T04:05:42;40.00;;;21.83;;
74995;SDS011;63545;51.690;5.202;2023-07-20T04:08:08;40.80;;;22.05;;
74995;SDS011;63545;51.690;5.202;2023-07-20T04:10:35;46.92;;;22.10;;
74995;SDS011;63545;51.690;5.202;2023-07-20T04:13:00;45.53;;;22.87;;
74995;SDS011;63545;51.690;5.202;2023-07-20T04:15:26;47.20;;;23.27;;
74995;SDS011;63545;51.690;5.202;2023-07-20T04:17:51;50.08;;;23.60;;
74995;SDS011;63545;51.690;5.202;2023-07-20T04:20:17;47.73;;;24.20;;
74995;SDS011;63545;51.690;5.202;2023-07-20T04:22:43;50.47;;;24.95;;
74995;SDS011;63545;51.690;5.202;2023-07-20T04:25:08;47.87;;;25.17;;
74995;SDS011;63545;51.690;5.202;2023-07-20T04:27:34;47.80;;;25.40;;
74995;SDS011;63545;51.690;5.202;2023-07-20T04:30:00;46.60;;;23.97;;
74995;SDS011;63545;51.690;5.202;2023-07-20T04:32:26;49.47;;;25.07;;
74995;SDS011;63545;51.690;5.202;2023-07-20T04:34:51;53.50;;;25.43;;
74995;SDS011;63545;51.690;5.202;2023-07-20T04:37:16;46.67;;;24.37;;
74995;SDS011;63545;51.690;5.202;2023-07-20T04:39:42;48.03;;;25.03;;
74995;SDS011;63545;51.690;5.202;2023-07-20T04:42:07;48.67;;;24.50;;
74995;SDS011;63545;51.690;5.202;2023-07-20T04:44:32;45.90;;;23.80;;
74995;SDS011;63545;51.690;5.202;2023-07-20T04:46:58;45.63;;;23.50;;
74995;SDS011;63545;51.690;5.202;2023-07-20T04:49:23;42.33;;;22.73;;
74995;SDS011;63545;51.690;5.202;2023-07-20T04:51:48;45.13;;;23.63;;
74995;SDS011;63545;51.690;5.202;2023-07-20T04:54:14;44.33;;;22.20;;
74995;SDS011;63545;51.690;5.202;2023-07-20T04:56:39;40.75;;;21.92;;
74995;SDS011;63545;51.690;5.202;2023-07-20T04:59:05;36.77;;;21.07;;
74995;SDS011;63545;51.690;5.202;2023-07-20T05:01:30;37.50;;;21.17;;
74995;SDS011;63545;51.690;5.202;2023-07-20T05:03:55;35.13;;;19.67;;
74995;SDS011;63545;51.690;5.202;2023-07-20T05:06:21;35.67;;;21.93;;
74995;SDS011;63545;51.690;5.202;2023-07-20T05:08:46;38.70;;;21.10;;
74995;SDS011;63545;51.690;5.202;2023-07-20T05:11:12;35.17;;;19.27;;
74995;SDS011;63545;51.690;5.202;2023-07-20T05:13:37;35.47;;;19.37;;
74995;SDS011;63545;51.690;5.202;2023-07-20T05:16:03;33.40;;;19.00;;
74995;SDS011;63545;51.690;5.202;2023-07-20T05:18:28;33.87;;;18.43;;
74995;SDS011;63545;51.690;5.202;2023-07-20T05:20:53;33.17;;;17.77;;
74995;SDS011;63545;51.690;5.202;2023-07-20T05:23:20;35.45;;;17.77;;
74995;SDS011;63545;51.690;5.202;2023-07-20T05:25:46;30.70;;;17.98;;
74995;SDS011;63545;51.690;5.202;2023-07-20T05:28:12;28.13;;;16.50;;
74995;SDS011;63545;51.690;5.202;2023-07-20T05:30:37;25.63;;;16.05;;
74995;SDS011;63545;51.690;5.202;2023-07-20T05:33:02;28.17;;;15.80;;
74995;SDS011;63545;51.690;5.202;2023-07-20T05:35:28;28.20;;;16.87;;
74995;SDS011;63545;51.690;5.202;2023-07-20T05:37:53;26.60;;;16.20;;
74995;SDS011;63545;51.690;5.202;2023-07-20T05:40:19;28.10;;;16.67;;
74995;SDS011;63545;51.690;5.202;2023-07-20T05:42:47;25.17;;;16.47;;
74995;SDS011;63545;51.690;5.202;2023-07-20T05:45:13;24.48;;;15.30;;
74995;SDS011;63545;51.690;5.202;2023-07-20T05:47:39;26.30;;;15.07;;
74995;SDS011;63545;51.690;5.202;2023-07-20T05:50:05;21.43;;;15.20;;
74995;SDS011;63545;51.690;5.202;2023-07-20T05:52:30;27.23;;;15.85;;
74995;SDS011;63545;51.690;5.202;2023-07-20T05:54:57;26.35;;;15.25;;
74995;SDS011;63545;51.690;5.202;2023-07-20T05:57:22;20.50;;;13.53;;
74995;SDS011;63545;51.690;5.202;2023-07-20T05:59:48;20.87;;;13.77;;
74995;SDS011;63545;51.690;5.202;2023-07-20T06:02:13;20.30;;;14.33;;
74995;SDS011;63545;51.690;5.202;2023-07-20T06:04:39;21.13;;;12.85;;
74995;SDS011;63545;51.690;5.202;2023-07-20T06:07:04;17.83;;;12.43;;
74995;SDS011;63545;51.690;5.202;2023-07-20T06:09:30;17.98;;;13.02;;
74995;SDS011;63545;51.690;5.202;2023-07-20T06:11:55;18.63;;;13.10;;
74995;SDS011;63545;51.690;5.202;2023-07-20T06:14:21;18.20;;;12.88;;
74995;SDS011;63545;51.690;5.202;2023-07-20T06:16:47;23.27;;;14.17;;
74995;SDS011;63545;51.690;5.202;2023-07-20T06:19:12;17.93;;;12.63;;
74995;SDS011;63545;51.690;5.202;2023-07-20T06:21:38;19.83;;;12.43;;
74995;SDS011;63545;51.690;5.202;2023-07-20T06:24:03;19.73;;;11.63;;
74995;SDS011;63545;51.690;5.202;2023-07-20T06:26:29;16.97;;;11.90;;
74995;SDS011;63545;51.690;5.202;2023-07-20T06:28:55;18.70;;;12.25;;
74995;SDS011;63545;51.690;5.202;2023-07-20T06:31:21;16.45;;;11.15;;
74995;SDS011;63545;51.690;5.202;2023-07-20T06:33:46;17.43;;;12.00;;
74995;SDS011;63545;51.690;5.202;2023-07-20T06:36:11;17.57;;;11.53;;
74995;SDS011;63545;51.690;5.202;2023-07-20T06:38:37;18.38;;;10.85;;
74995;SDS011;63545;51.690;5.202;2023-07-20T06:41:02;15.83;;;11.53;;
74995;SDS011;63545;51.690;5.202;2023-07-20T06:43:27;18.17;;;11.13;;
74995;SDS011;63545;51.690;5.202;2023-07-20T06:45:53;13.97;;;10.07;;
74995;SDS011;63545;51.690;5.202;2023-07-20T06:48:19;14.55;;;10.07;;
74995;SDS011;63545;51.690;5.202;2023-07-20T06:50:44;13.60;;;9.90;;
74995;SDS011;63545;51.690;5.202;2023-07-20T06:53:10;15.77;;;9.83;;
74995;SDS011;63545;51.690;5.202;2023-07-20T06:55:35;12.30;;;8.07;;
74995;SDS011;63545;51.690;5.202;2023-07-20T06:58:00;11.45;;;7.38;;
74995;SDS011;63545;51.690;5.202;2023-07-20T07:00:26;8.00;;;5.47;;
74995;SDS011;63545;51.690;5.202;2023-07-20T07:02:51;9.20;;;4.37;;
74995;SDS011;63545;51.690;5.202;2023-07-20T07:05:17;8.10;;;4.80;;
74995;SDS011;63545;51.690;5.202;2023-07-20T07:07:43;7.20;;;4.90;;
74995;SDS011;63545;51.690;5.202;2023-07-20T07:10:08;9.13;;;4.67;;
74995;SDS011;63545;51.690;5.202;2023-07-20T07:12:34;6.03;;;4.23;;
74995;SDS011;63545;51.690;5.202;2023-07-20T07:15:00;5.55;;;3.40;;
74995;SDS011;63545;51.690;5.202;2023-07-20T07:17:26;6.82;;;3.63;;
74995;SDS011;63545;51.690;5.202;2023-07-20T07:19:52;4.37;;;3.30;;
74995;SDS011;63545;51.690;5.202;2023-07-20T07:22:19;3.28;;;2.70;;
74995;SDS011;63545;51.690;5.202;2023-07-20T07:24:46;2.35;;;2.03;;
74995;SDS011;63545;51.690;5.202;2023-07-20T07:27:11;5.80;;;2.40;;
74995;SDS011;63545;51.690;5.202;2023-07-20T07:29:37;3.47;;;2.57;;
74995;SDS011;63545;51.690;5.202;2023-07-20T07:32:02;6.68;;;3.30;;
74995;SDS011;63545;51.690;5.202;2023-07-20T07:34:28;3.73;;;1.83;;
74995;SDS011;63545;51.690;5.202;2023-07-20T07:36:53;2.50;;;2.00;;
74995;SDS011;63545;51.690;5.202;2023-07-20T07:39:19;2.27;;;1.63;;
74995;SDS011;63545;51.690;5.202;2023-07-20T07:41:44;2.35;;;1.67;;
74995;SDS011;63545;51.690;5.202;2023-07-20T07:44:10;2.87;;;1.77;;
74995;SDS011;63545;51.690;5.202;2023-07-20T07:46:35;3.00;;;1.67;;
74995;SDS011;63545;51.690;5.202;2023-07-20T07:49:00;4.10;;;2.00;;
74995;SDS011;63545;51.690;5.202;2023-07-20T07:51:26;3.45;;;2.42;;
74995;SDS011;63545;51.690;5.202;2023-07-20T07:53:52;5.90;;;2.70;;
74995;SDS011;63545;51.690;5.202;2023-07-20T07:56:17;4.55;;;2.70;;
74995;SDS011;63545;51.690;5.202;2023-07-20T07:58:47;2.77;;;2.07;;
74995;SDS011;63545;51.690;5.202;2023-07-20T08:01:13;1.90;;;1.65;;
74995;SDS011;63545;51.690;5.202;2023-07-20T08:03:38;3.53;;;1.60;;
74995;SDS011;63545;51.690;5.202;2023-07-20T08:06:03;3.30;;;1.60;;
74995;SDS011;63545;51.690;5.202;2023-07-20T08:08:30;2.60;;;1.40;;
74995;SDS011;63545;51.690;5.202;2023-07-20T08:10:56;1.95;;;1.42;;
74995;SDS011;63545;51.690;5.202;2023-07-20T08:13:21;2.27;;;1.10;;
74995;SDS011;63545;51.690;5.202;2023-07-20T08:15:49;1.63;;;1.10;;
74995;SDS011;63545;51.690;5.202;2023-07-20T08:18:16;5.97;;;1.50;;
74995;SDS011;63545;51.690;5.202;2023-07-20T08:20:45;3.20;;;1.87;;
74995;SDS011;63545;51.690;5.202;2023-07-20T08:23:11;2.47;;;1.30;;
74995;SDS011;63545;51.690;5.202;2023-07-20T08:25:37;4.57;;;1.45;;
74995;SDS011;63545;51.690;5.202;2023-07-20T08:28:04;4.03;;;1.60;;
74995;SDS011;63545;51.690;5.202;2023-07-20T08:30:39;2.77;;;1.50;;
74995;SDS011;63545;51.690;5.202;2023-07-20T08:33:15;2.08;;;1.85;;
74995;SDS011;63545;51.690;5.202;2023-07-20T08:35:41;4.10;;;1.80;;
74995;SDS011;63545;51.690;5.202;2023-07-20T08:38:08;2.08;;;1.60;;
74995;SDS011;63545;51.690;5.202;2023-07-20T08:40:33;2.67;;;1.50;;
74995;SDS011;63545;51.690;5.202;2023-07-20T08:43:04;3.67;;;1.70;;
74995;SDS011;63545;51.690;5.202;2023-07-20T08:45:29;2.40;;;1.43;;
74995;SDS011;63545;51.690;5.202;2023-07-20T08:47:56;2.30;;;1.70;;
74995;SDS011;63545;51.690;5.202;2023-07-20T08:50:25;5.30;;;2.00;;
74995;SDS011;63545;51.690;5.202;2023-07-20T08:52:52;3.40;;;1.83;;
74995;SDS011;63545;51.690;5.202;2023-07-20T08:55:19;3.17;;;1.80;;
74995;SDS011;63545;51.690;5.202;2023-07-20T08:57:45;3.13;;;1.90;;
74995;SDS011;63545;51.690;5.202;2023-07-20T09:00:12;3.33;;;1.88;;
74995;SDS011;63545;51.690;5.202;2023-07-20T09:02:39;1.50;;;1.37;;
74995;SDS011;63545;51.690;5.202;2023-07-20T09:05:08;2.80;;;1.60;;
74995;SDS011;63545;51.690;5.202;2023-07-20T09:07:35;3.00;;;1.85;;
74995;SDS011;63545;51.690;5.202;2023-07-20T09:10:00;2.47;;;1.80;;
74995;SDS011;63545;51.690;5.202;2023-07-20T09:12:30;2.63;;;1.70;;
74995;SDS011;63545;51.690;5.202;2023-07-20T09:14:57;2.17;;;1.73;;
74995;SDS011;63545;51.690;5.202;2023-07-20T09:17:22;3.45;;;1.90;;
74995;SDS011;63545;51.690;5.202;2023-07-20T09:19:50;4.40;;;1.83;;
74995;SDS011;63545;51.690;5.202;2023-07-20T09:22:16;3.85;;;1.73;;
74995;SDS011;63545;51.690;5.202;2023-07-20T09:24:42;2.70;;;2.00;;
74995;SDS011;63545;51.690;5.202;2023-07-20T09:27:07;3.03;;;1.90;;
74995;SDS011;63545;51.690;5.202;2023-07-20T09:29:34;2.70;;;2.00;;
74995;SDS011;63545;51.690;5.202;2023-07-20T09:32:00;3.87;;;1.93;;
74995;SDS011;63545;51.690;5.202;2023-07-20T09:34:28;4.25;;;1.98;;
74995;SDS011;63545;51.690;5.202;2023-07-20T09:36:55;2.40;;;1.80;;
74995;SDS011;63545;51.690;5.202;2023-07-20T09:39:20;3.92;;;1.90;;
74995;SDS011;63545;51.690;5.202;2023-07-20T09:41:46;2.97;;;2.10;;
74995;SDS011;63545;51.690;5.202;2023-07-20T09:44:12;3.50;;;1.80;;
74995;SDS011;63545;51.690;5.202;2023-07-20T09:46:46;4.25;;;1.80;;
74995;SDS011;63545;51.690;5.202;2023-07-20T09:49:14;3.38;;;1.60;;
74995;SDS011;63545;51.690;5.202;2023-07-20T09:51:42;4.68;;;1.90;;
74995;SDS011;63545;51.690;5.202;2023-07-20T09:54:07;2.70;;;1.80;;
74995;SDS011;63545;51.690;5.202;2023-07-20T09:56:33;2.97;;;2.35;;
74995;SDS011;63545;51.690;5.202;2023-07-20T09:59:00;4.72;;;1.98;;
74995;SDS011;63545;51.690;5.202;2023-07-20T10:01:25;4.43;;;2.37;;
74995;SDS011;63545;51.690;5.202;2023-07-20T10:03:53;2.58;;;2.00;;
74995;SDS011;63545;51.690;5.202;2023-07-20T10:06:20;3.47;;;2.10;;
74995;SDS011;63545;51.690;5.202;2023-07-20T10:08:49;2.85;;;1.90;;
74995;SDS011;63545;51.690;5.202;2023-07-20T10:11:17;4.07;;;2.30;;
74995;SDS011;63545;51.690;5.202;2023-07-20T10:13:44;3.05;;;1.90;;
74995;SDS011;63545;51.690;5.202;2023-07-20T10:16:10;3.40;;;2.03;;
74995;SDS011;63545;51.690;5.202;2023-07-20T10:21:19;3.13;;;1.80;;
74995;SDS011;63545;51.690;5.202;2023-07-20T10:23:45;2.80;;;1.90;;
74995;SDS011;63545;51.690;5.202;2023-07-20T10:26:11;3.78;;;2.03;;
74995;SDS011;63545;51.690;5.202;2023-07-20T10:28:38;2.65;;;2.30;;
74995;SDS011;63545;51.690;5.202;2023-07-20T10:31:04;3.67;;;1.85;;
74995;SDS011;63545;51.690;5.202;2023-07-20T10:33:29;4.10;;;2.00;;
74995;SDS011;63545;51.690;5.202;2023-07-20T10:36:02;3.00;;;1.98;;
74995;SDS011;63545;51.690;5.202;2023-07-20T10:41:15;2.70;;;1.88;;
74995;SDS011;63545;51.690;5.202;2023-07-20T10:43:44;2.67;;;2.08;;
74995;SDS011;63545;51.690;5.202;2023-07-20T10:46:10;3.08;;;2.00;;
74995;SDS011;63545;51.690;5.202;2023-07-20T10:48:39;3.38;;;2.38;;
74995;SDS011;63545;51.690;5.202;2023-07-20T10:51:26;2.00;;;1.80;;
74995;SDS011;63545;51.690;5.202;2023-07-20T10:53:51;3.00;;;2.20;;
74995;SDS011;63545;51.690;5.202;2023-07-20T10:56:22;3.27;;;1.80;;
74995;SDS011;63545;51.690;5.202;2023-07-20T10:58:48;2.85;;;1.90;;
74995;SDS011;63545;51.690;5.202;2023-07-20T11:01:14;2.80;;;2.00;;
74995;SDS011;63545;51.690;5.202;2023-07-20T11:03:42;3.45;;;2.28;;
74995;SDS011;63545;51.690;5.202;2023-07-20T11:09:10;2.53;;;1.80;;
74995;SDS011;63545;51.690;5.202;2023-07-20T11:11:38;4.22;;;1.90;;
74995;SDS011;63545;51.690;5.202;2023-07-20T11:14:05;3.22;;;1.65;;
74995;SDS011;63545;51.690;5.202;2023-07-20T11:16:41;3.05;;;2.13;;
74995;SDS011;63545;51.690;5.202;2023-07-20T11:19:18;5.22;;;2.60;;
74995;SDS011;63545;51.690;5.202;2023-07-20T11:21:46;3.53;;;2.30;;
74995;SDS011;63545;51.690;5.202;2023-07-20T11:24:12;4.97;;;2.00;;
74995;SDS011;63545;51.690;5.202;2023-07-20T11:29:06;3.80;;;2.15;;
74995;SDS011;63545;51.690;5.202;2023-07-20T11:31:34;2.97;;;2.20;;
74995;SDS011;63545;51.690;5.202;2023-07-20T11:34:00;3.28;;;2.30;;
74995;SDS011;63545;51.690;5.202;2023-07-20T11:36:25;4.10;;;2.07;;
74995;SDS011;63545;51.690;5.202;2023-07-20T11:38:51;3.37;;;2.30;;
74995;SDS011;63545;51.690;5.202;2023-07-20T11:41:16;3.27;;;2.50;;
74995;SDS011;63545;51.690;5.202;2023-07-20T11:43:42;5.03;;;2.47;;
74995;SDS011;63545;51.690;5.202;2023-07-20T11:46:07;4.50;;;2.60;;
74995;SDS011;63545;51.690;5.202;2023-07-20T11:48:34;4.72;;;2.30;;
74995;SDS011;63545;51.690;5.202;2023-07-20T11:50:59;4.83;;;3.70;;
74995;SDS011;63545;51.690;5.202;2023-07-20T11:53:24;3.97;;;2.77;;
74995;SDS011;63545;51.690;5.202;2023-07-20T11:55:50;4.10;;;2.22;;
74995;SDS011;63545;51.690;5.202;2023-07-20T11:58:16;4.13;;;2.77;;
74995;SDS011;63545;51.690;5.202;2023-07-20T12:00:43;3.03;;;2.65;;
74995;SDS011;63545;51.690;5.202;2023-07-20T12:03:09;3.90;;;2.75;;
74995;SDS011;63545;51.690;5.202;2023-07-20T12:05:37;3.78;;;2.47;;
74995;SDS011;63545;51.690;5.202;2023-07-20T12:08:03;3.67;;;2.53;;
74995;SDS011;63545;51.690;5.202;2023-07-20T12:10:29;4.30;;;2.20;;
74995;SDS011;63545;51.690;5.202;2023-07-20T12:12:55;2.83;;;2.20;;
74995;SDS011;63545;51.690;5.202;2023-07-20T12:15:26;3.88;;;2.30;;
74995;SDS011;63545;51.690;5.202;2023-07-20T12:17:52;4.50;;;2.37;;
74995;SDS011;63545;51.690;5.202;2023-07-20T12:23:10;4.07;;;1.95;;
74995;SDS011;63545;51.690;5.202;2023-07-20T12:28:13;4.93;;;2.90;;
74995;SDS011;63545;51.690;5.202;2023-07-20T12:30:39;4.88;;;2.30;;
74995;SDS011;63545;51.690;5.202;2023-07-20T12:33:06;5.18;;;2.33;;
74995;SDS011;63545;51.690;5.202;2023-07-20T12:35:32;3.17;;;2.10;;
74995;SDS011;63545;51.690;5.202;2023-07-20T12:37:57;3.40;;;2.27;;
74995;SDS011;63545;51.690;5.202;2023-07-20T12:40:23;3.45;;;2.42;;
74995;SDS011;63545;51.690;5.202;2023-07-20T12:42:49;3.53;;;2.40;;
74995;SDS011;63545;51.690;5.202;2023-07-20T12:45:14;4.57;;;2.60;;
74995;SDS011;63545;51.690;5.202;2023-07-20T12:47:40;4.60;;;2.60;;
74995;SDS011;63545;51.690;5.202;2023-07-20T12:50:07;4.95;;;2.30;;
74995;SDS011;63545;51.690;5.202;2023-07-20T12:52:35;4.37;;;2.30;;
74995;SDS011;63545;51.690;5.202;2023-07-20T12:55:01;5.10;;;2.33;;
74995;SDS011;63545;51.690;5.202;2023-07-20T12:57:27;3.10;;;2.22;;
74995;SDS011;63545;51.690;5.202;2023-07-20T12:59:52;3.33;;;2.40;;
74995;SDS011;63545;51.690;5.202;2023-07-20T13:02:18;5.30;;;2.20;;
74995;SDS011;63545;51.690;5.202;2023-07-20T13:04:43;3.93;;;2.10;;
74995;SDS011;63545;51.690;5.202;2023-07-20T13:07:09;3.60;;;2.10;;
74995;SDS011;63545;51.690;5.202;2023-07-20T13:09:36;4.67;;;2.17;;
74995;SDS011;63545;51.690;5.202;2023-07-20T13:12:01;2.58;;;2.05;;
74995;SDS011;63545;51.690;5.202;2023-07-20T13:14:27;3.27;;;2.23;;
74995;SDS011;63545;51.690;5.202;2023-07-20T13:16:54;3.70;;;2.20;;
74995;SDS011;63545;51.690;5.202;2023-07-20T13:19:20;5.05;;;1.88;;
74995;SDS011;63545;51.690;5.202;2023-07-20T13:21:45;4.03;;;1.80;;
74995;SDS011;63545;51.690;5.202;2023-07-20T13:24:11;3.03;;;1.97;;
74995;SDS011;63545;51.690;5.202;2023-07-20T13:26:36;2.40;;;2.07;;
74995;SDS011;63545;51.690;5.202;2023-07-20T13:29:01;3.00;;;2.60;;
74995;SDS011;63545;51.690;5.202;2023-07-20T13:31:27;3.58;;;2.60;;
74995;SDS011;63545;51.690;5.202;2023-07-20T13:33:53;5.07;;;2.30;;
74995;SDS011;63545;51.690;5.202;2023-07-20T13:36:18;3.33;;;2.20;;
74995;SDS011;63545;51.690;5.202;2023-07-20T13:38:44;3.43;;;2.60;;
74995;SDS011;63545;51.690;5.202;2023-07-20T13:41:10;2.50;;;2.30;;
74995;SDS011;63545;51.690;5.202;2023-07-20T13:43:35;3.75;;;2.17;;
74995;SDS011;63545;51.690;5.202;2023-07-20T13:46:00;4.67;;;2.70;;
74995;SDS011;63545;51.690;5.202;2023-07-20T13:48:25;4.73;;;2.80;;
74995;SDS011;63545;51.690;5.202;2023-07-20T13:50:52;3.78;;;2.58;;
74995;SDS011;63545;51.690;5.202;2023-07-20T13:53:18;3.37;;;2.30;;
74995;SDS011;63545;51.690;5.202;2023-07-20T13:55:43;2.40;;;2.20;;
74995;SDS011;63545;51.690;5.202;2023-07-20T13:58:09;2.58;;;2.38;;
74995;SDS011;63545;51.690;5.202;2023-07-20T14:00:37;4.90;;;2.78;;
74995;SDS011;63545;51.690;5.202;2023-07-20T14:03:02;2.60;;;1.93;;
74995;SDS011;63545;51.690;5.202;2023-07-20T14:05:28;3.47;;;2.17;;
74995;SDS011;63545;51.690;5.202;2023-07-20T14:07:53;3.60;;;2.20;;
74995;SDS011;63545;51.690;5.202;2023-07-20T14:10:19;2.45;;;2.20;;
74995;SDS011;63545;51.690;5.202;2023-07-20T14:12:44;2.73;;;2.40;;
74995;SDS011;63545;51.690;5.202;2023-07-20T14:15:10;4.10;;;2.33;;
74995;SDS011;63545;51.690;5.202;2023-07-20T14:17:36;2.40;;;2.20;;
74995;SDS011;63545;51.690;5.202;2023-07-20T14:20:01;2.30;;;2.07;;
74995;SDS011;63545;51.690;5.202;2023-07-20T14:22:30;2.70;;;2.30;;
74995;SDS011;63545;51.690;5.202;2023-07-20T14:24:55;2.97;;;2.00;;
74995;SDS011;63545;51.690;5.202;2023-07-20T14:27:21;3.07;;;2.40;;
74995;SDS011;63545;51.690;5.202;2023-07-20T14:29:46;2.78;;;2.30;;
74995;SDS011;63545;51.690;5.202;2023-07-20T14:32:11;2.93;;;2.30;;
74995;SDS011;63545;51.690;5.202;2023-07-20T14:34:37;3.70;;;2.57;;
74995;SDS011;63545;51.690;5.202;2023-07-20T14:37:02;4.63;;;2.17;;
74995;SDS011;63545;51.690;5.202;2023-07-20T14:39:29;3.38;;;2.38;;
74995;SDS011;63545;51.690;5.202;2023-07-20T14:41:54;4.33;;;2.30;;
74995;SDS011;63545;51.690;5.202;2023-07-20T14:44:20;3.00;;;2.40;;
74995;SDS011;63545;51.690;5.202;2023-07-20T14:46:45;6.18;;;2.15;;